Jigger, Louisiana
Current Conditions -  °F | °C
As of 4:53 PM on Saturday 25 Oct 2014 (Local Time) from KMLU Reporting Station
Clear Clear  
Wind Chill: 82°   Ceiling: Unl
Heat Index: 82°   Visibility: 10mi
Dew Point: 59°   Wind: 8mph
Humidity: 45%   Direction: 270°W
Pressure: 30.07"   Gusts: NA
Location:  32.04°N, 91.75°W
Report Text: KMLU 252153Z 27007KT 10SM CLR 28/15 A3007 RMK AO2 SLP183 T02780150
Loading
Personal Weather Stations






























Interactive Weather Map
Tropical Storm Tracking
New forecast layout! Learn more

10-Day Weather Forecast

Advertisements
Track Severe Weather on mobile